Time;durP1;ratioP1;P1;durP2;ratioP2;P2;SDS_P1;SDS_P2;PMS_P1;PMS_P2;Temp;Humidity;BMP_temperature;BMP_pressure;BME280_temperature;BME280_humidity;BME280_pressure;Samples;Min_cycle;Max_cycle;Signal;HPM_P1;HPM_P2
2021/01/15 00:05:14;;;;;;;5.22;1.45;;;0.40;99.90;;;;;;10356547;28;20068;-52
2021/01/15 00:10:35;;;;;;;5.45;1.85;;;0.40;99.90;;;;;;10357091;28;20049;-52
2021/01/15 00:15:56;;;;;;;5.40;1.52;;;0.40;99.90;;;;;;10355337;28;20173;-52
2021/01/15 00:21:24;;;;;;;2.38;0.73;;;0.40;99.90;;;;;;10353420;28;20029;-52
2021/01/15 00:26:47;;;;;;;4.80;1.10;;;0.30;99.90;;;;;;10356354;28;20077;-52
2021/01/15 00:32:08;;;;;;;2.33;1.10;;;0.30;99.90;;;;;;10351253;28;20303;-53
2021/01/15 00:37:29;;;;;;;3.95;1.15;;;0.20;99.90;;;;;;10350553;28;20298;-52
2021/01/15 00:42:50;;;;;;;6.30;1.42;;;0.20;99.90;;;;;;10353011;28;20049;-52
2021/01/15 00:48:11;;;;;;;4.45;1.73;;;0.20;99.90;;;;;;10352042;28;20045;-52
2021/01/15 00:53:32;;;;;;;4.53;1.20;;;0.20;99.90;;;;;;10362630;28;20045;-52
2021/01/15 00:58:53;;;;;;;1.77;1.10;;;0.30;99.90;;;;;;10371496;28;20128;-53
2021/01/15 01:04:14;;;;;;;4.47;1.00;;;0.30;99.90;;;;;;10367893;28;20037;-52
2021/01/15 01:09:35;;;;;;;5.07;2.03;;;0.30;99.90;;;;;;10368623;28;20046;-52
2021/01/15 01:14:55;;;;;;;3.10;1.23;;;0.30;99.90;;;;;;10367608;28;20045;-53
2021/01/15 01:20:17;;;;;;;3.90;2.17;;;0.30;99.90;;;;;;10367823;28;20047;-52
2021/01/15 01:25:37;;;;;;;5.65;1.50;;;0.30;99.90;;;;;;10368760;28;20383;-52
2021/01/15 01:30:59;;;;;;;2.13;1.17;;;0.40;99.90;;;;;;10369953;28;20705;-52
2021/01/15 01:36:20;;;;;;;4.72;1.05;;;0.50;99.90;;;;;;10367953;28;20057;-52
2021/01/15 01:41:41;;;;;;;4.65;1.00;;;0.40;99.90;;;;;;10362507;28;21459;-52
2021/01/15 01:47:03;;;;;;;3.05;1.05;;;0.50;99.90;;;;;;10367466;28;20049;-53
2021/01/15 01:52:25;;;;;;;5.35;2.38;;;0.50;99.90;;;;;;10363886;28;20054;-52
2021/01/15 01:57:46;;;;;;;7.25;1.70;;;0.60;99.90;;;;;;10367146;28;20048;-52
2021/01/15 02:03:07;;;;;;;8.05;1.27;;;0.70;99.90;;;;;;10362884;28;20038;-52
2021/01/15 02:08:29;;;;;;;3.00;1.38;;;0.80;99.90;;;;;;10365903;28;20029;-52
2021/01/15 02:14:18;;;;;;;7.38;1.98;;;0.90;99.90;;;;;;10368070;28;20038;-52
2021/01/15 02:19:42;;;;;;;2.95;0.90;;;1.00;99.90;;;;;;10363460;28;20074;-52
2021/01/15 02:25:30;;;;;;;4.80;1.67;;;1.10;99.90;;;;;;10366170;28;20045;-52
2021/01/15 02:31:09;;;;;;;8.55;1.95;;;1.20;99.90;;;;;;10364797;28;20465;-52
2021/01/15 02:36:37;;;;;;;3.58;1.33;;;1.30;99.90;;;;;;10363012;28;20049;-52
2021/01/15 02:41:59;;;;;;;2.42;1.33;;;1.30;99.90;;;;;;10357915;28;20033;-52
2021/01/15 02:47:27;;;;;;;2.70;1.00;;;1.30;99.90;;;;;;10366203;28;20038;-52
2021/01/15 02:52:49;;;;;;;6.00;1.05;;;1.30;99.90;;;;;;10364913;28;20064;-53
2021/01/15 02:58:12;;;;;;;2.83;1.40;;;1.40;99.90;;;;;;10360601;28;20042;-52
2021/01/15 03:04:00;;;;;;;2.58;0.82;;;1.40;99.90;;;;;;10377901;28;20041;-53
2021/01/15 03:09:22;;;;;;;2.47;0.80;;;1.50;99.90;;;;;;10365655;28;20034;-52
2021/01/15 03:14:45;;;;;;;4.25;1.98;;;1.50;99.90;;;;;;10361854;28;20073;-52
2021/01/15 03:20:07;;;;;;;3.08;0.93;;;1.50;99.90;;;;;;10376154;28;20056;-52
2021/01/15 03:25:28;;;;;;;3.28;1.17;;;1.50;99.90;;;;;;10361866;28;20051;-52
2021/01/15 03:30:49;;;;;;;1.38;1.13;;;1.50;99.90;;;;;;10362481;28;20048;-52
2021/01/15 03:36:10;;;;;;;2.47;1.23;;;1.50;99.90;;;;;;10357471;28;20125;-52
2021/01/15 03:41:31;;;;;;;3.55;1.13;;;1.50;99.90;;;;;;10365901;28;20049;-52
2021/01/15 03:46:56;;;;;;;1.67;0.70;;;1.50;99.90;;;;;;10360553;28;20474;-52
2021/01/15 03:52:16;;;;;;;4.10;1.02;;;1.50;99.90;;;;;;10359278;28;20037;-53
2021/01/15 03:57:37;;;;;;;6.90;1.52;;;1.50;99.90;;;;;;10358804;28;20459;-52
2021/01/15 04:02:58;;;;;;;1.05;0.45;;;1.50;99.90;;;;;;10356190;28;20034;-52
2021/01/15 04:08:19;;;;;;;2.63;0.70;;;1.50;99.90;;;;;;10361021;28;20103;-52
2021/01/15 04:13:40;;;;;;;1.85;0.52;;;1.50;99.90;;;;;;10359997;28;20042;-52
2021/01/15 04:19:01;;;;;;;3.05;1.42;;;1.60;99.90;;;;;;10362263;28;20128;-52
2021/01/15 04:24:23;;;;;;;4.25;1.13;;;1.60;99.90;;;;;;10360637;28;20038;-52
2021/01/15 04:29:44;;;;;;;3.40;1.02;;;1.60;99.90;;;;;;10358392;28;20041;-52
2021/01/15 04:35:05;;;;;;;3.67;1.20;;;1.60;99.90;;;;;;10357145;28;20084;-52
2021/01/15 04:40:26;;;;;;;3.45;0.82;;;1.60;99.90;;;;;;10360631;28;20136;-52
2021/01/15 04:45:48;;;;;;;4.03;1.48;;;1.70;99.90;;;;;;10359057;28;20050;-52
2021/01/15 04:51:17;;;;;;;2.25;0.80;;;1.70;99.90;;;;;;10358546;28;20055;-52
2021/01/15 04:56:38;;;;;;;;;;;1.80;99.90;;;;;;10362556;28;20049;-52
2021/01/15 05:02:07;;;;;;;2.28;0.63;;;1.80;99.90;;;;;;10359894;28;19925;-52
2021/01/15 05:07:30;;;;;;;3.50;0.95;;;1.80;99.90;;;;;;10358417;28;20046;-52
2021/01/15 05:12:54;;;;;;;1.42;0.65;;;1.80;99.90;;;;;;10364134;28;20508;-52
2021/01/15 05:18:17;;;;;;;2.65;1.00;;;1.70;99.90;;;;;;10357065;28;20049;-52
2021/01/15 05:23:38;;;;;;;1.85;0.60;;;1.70;99.90;;;;;;10360620;28;20128;-52
2021/01/15 05:29:01;;;;;;;1.83;0.90;;;1.80;99.90;;;;;;10356766;28;20049;-52
2021/01/15 05:34:27;;;;;;;3.10;1.00;;;1.90;99.90;;;;;;10358560;28;20844;-52
2021/01/15 05:39:48;;;;;;;2.50;1.20;;;1.90;99.90;;;;;;10360680;28;20041;-52
2021/01/15 05:45:13;;;;;;;6.60;2.45;;;1.90;99.90;;;;;;10367370;28;20046;-52
2021/01/15 05:50:39;;;;;;;4.78;1.23;;;2.00;99.90;;;;;;10373792;28;20034;-52
2021/01/15 05:56:00;;;;;;;4.97;1.35;;;2.00;99.90;;;;;;10368079;28;20033;-52
2021/01/15 06:01:22;;;;;;;2.22;1.10;;;1.90;99.90;;;;;;10368674;28;20037;-52
2021/01/15 06:06:44;;;;;;;3.80;1.42;;;1.90;99.90;;;;;;10367885;28;20117;-52
2021/01/15 06:12:17;;;;;;;3.88;0.90;;;2.00;99.90;;;;;;10365563;28;20030;-52
2021/01/15 06:17:39;;;;;;;5.50;1.90;;;2.00;99.90;;;;;;10363421;28;20049;-52
2021/01/15 06:23:10;;;;;;;3.28;1.42;;;2.00;99.90;;;;;;10363138;28;20042;-52
2021/01/15 06:28:34;;;;;;;3.60;1.60;;;2.00;99.90;;;;;;10363034;28;20103;-52
2021/01/15 06:34:01;;;;;;;5.95;2.10;;;2.10;99.90;;;;;;10365257;28;20254;-52
2021/01/15 06:39:22;;;;;;;3.65;0.90;;;2.10;99.90;;;;;;10363610;28;20045;-52
2021/01/15 06:44:53;;;;;;;3.03;1.33;;;2.00;99.90;;;;;;10363622;28;20037;-52
2021/01/15 06:50:16;;;;;;;6.00;2.08;;;2.00;99.90;;;;;;10362278;28;20559;-52
2021/01/15 06:55:42;;;;;;;3.05;1.10;;;2.00;99.90;;;;;;10360477;28;20045;-52
2021/01/15 07:01:25;;;;;;;4.78;1.63;;;1.90;99.90;;;;;;10363471;28;20163;-52
2021/01/15 07:06:55;;;;;;;4.07;0.98;;;1.90;99.90;;;;;;10373650;28;20064;-52
2021/01/15 07:12:21;;;;;;;3.00;1.45;;;1.90;99.90;;;;;;10362463;28;20596;-52
2021/01/15 07:17:47;;;;;;;3.45;1.15;;;1.90;99.90;;;;;;10363752;28;20054;-51
2021/01/15 07:23:15;;;;;;;5.95;2.33;;;1.80;99.90;;;;;;10364564;28;20126;-52
2021/01/15 07:28:36;;;;;;;5.13;1.20;;;1.80;99.90;;;;;;10363650;28;20052;-52
2021/01/15 07:34:00;;;;;;;2.92;1.02;;;1.80;99.90;;;;;;10363493;28;20041;-52
2021/01/15 07:39:24;;;;;;;5.03;1.60;;;1.80;99.90;;;;;;10361085;28;20041;-52
2021/01/15 07:44:45;;;;;;;4.97;1.67;;;1.70;99.90;;;;;;10362425;28;20041;-52
2021/01/15 07:50:07;;;;;;;3.30;1.92;;;1.70;99.90;;;;;;10363383;28;20071;-52
2021/01/15 07:55:58;;;;;;;3.05;0.68;;;1.70;99.90;;;;;;10360842;28;20059;-52
2021/01/15 08:01:20;;;;;;;4.80;2.00;;;1.80;99.90;;;;;;10364530;28;20495;-52
2021/01/15 08:06:43;;;;;;;11.70;3.08;;;1.80;99.90;;;;;;10362816;28;20093;-52
2021/01/15 08:12:05;;;;;;;9.43;2.45;;;1.80;99.90;;;;;;10370695;28;20041;-51
2021/01/15 08:17:26;;;;;;;9.30;2.35;;;1.80;99.90;;;;;;10361445;28;20048;-52
2021/01/15 08:22:51;;;;;;;4.50;1.63;;;1.80;99.90;;;;;;10354941;28;20057;-52
2021/01/15 08:28:12;;;;;;;5.13;1.98;;;1.80;99.90;;;;;;10356576;28;20796;-52
2021/01/15 08:33:34;;;;;;;4.75;1.48;;;1.90;99.90;;;;;;10358177;28;20042;-52
2021/01/15 08:38:57;;;;;;;2.88;0.95;;;1.90;99.90;;;;;;10359709;28;20417;-52
2021/01/15 08:44:18;;;;;;;4.65;1.92;;;1.90;99.90;;;;;;10363434;28;20141;-52
2021/01/15 08:49:50;;;;;;;5.28;2.17;;;2.00;99.90;;;;;;10359923;28;20048;-52
2021/01/15 08:55:13;;;;;;;2.70;0.80;;;2.00;99.90;;;;;;10359846;28;20415;-52
2021/01/15 09:00:35;;;;;;;7.70;1.70;;;2.10;99.90;;;;;;10358054;28;20100;-52
2021/01/15 09:05:59;;;;;;;6.03;2.03;;;2.10;99.90;;;;;;10359350;28;20048;-52
2021/01/15 09:11:26;;;;;;;5.30;2.03;;;2.10;99.90;;;;;;10363561;28;20064;-52
2021/01/15 09:16:48;;;;;;;4.60;1.52;;;2.10;99.90;;;;;;10365972;28;20182;-52
2021/01/15 09:22:17;;;;;;;8.60;2.22;;;2.10;99.90;;;;;;10366516;28;20695;-52
2021/01/15 09:27:39;;;;;;;3.90;1.08;;;2.10;99.90;;;;;;10366796;28;20038;-52
2021/01/15 09:32:59;;;;;;;5.15;2.28;;;2.10;99.90;;;;;;10370218;28;20076;-52
2021/01/15 09:38:20;;;;;;;6.88;1.65;;;2.10;99.90;;;;;;10365671;28;20052;-52
2021/01/15 09:43:42;;;;;;;7.13;2.47;;;2.20;99.90;;;;;;10362077;28;20050;-52
2021/01/15 09:49:03;;;;;;;4.68;1.65;;;2.20;99.90;;;;;;10367607;28;20047;-52
2021/01/15 09:54:24;;;;;;;4.55;1.73;;;2.20;99.90;;;;;;10365789;28;20038;-52
2021/01/15 09:59:45;;;;;;;8.82;1.92;;;2.20;99.90;;;;;;10368057;28;20414;-52
2021/01/15 10:05:07;;;;;;;5.05;1.08;;;2.20;99.90;;;;;;10367618;28;20724;-52
2021/01/15 10:10:28;;;;;;;14.65;2.97;;;2.20;99.90;;;;;;10376253;28;20033;-52
2021/01/15 10:15:49;;;;;;;6.00;1.42;;;2.30;99.90;;;;;;10360698;28;20474;-52
2021/01/15 10:21:10;;;;;;;7.07;1.65;;;2.30;99.90;;;;;;10365867;28;20046;-52
2021/01/15 10:26:33;;;;;;;5.22;2.05;;;2.40;99.90;;;;;;10366302;28;20038;-52
2021/01/15 10:31:54;;;;;;;7.35;2.55;;;2.40;99.90;;;;;;10367122;28;20100;-52
2021/01/15 10:37:15;;;;;;;5.72;1.92;;;2.40;99.90;;;;;;10367091;28;20029;-52
2021/01/15 10:42:38;;;;;;;7.03;1.75;;;2.40;99.90;;;;;;10363218;28;20494;-52
2021/01/15 10:47:59;;;;;;;4.93;1.80;;;2.40;99.90;;;;;;10368497;28;20046;-52
2021/01/15 10:53:20;;;;;;;7.55;2.85;;;2.40;99.90;;;;;;10368125;28;20124;-52
2021/01/15 10:58:41;;;;;;;5.05;2.00;;;2.40;99.90;;;;;;10364525;28;20045;-52
2021/01/15 11:04:03;;;;;;;9.95;2.80;;;2.40;99.90;;;;;;10361003;28;20565;-52
2021/01/15 11:09:25;;;;;;;12.38;1.98;;;2.40;99.90;;;;;;10361530;28;20049;-52
2021/01/15 11:14:46;;;;;;;4.38;1.80;;;2.50;99.90;;;;;;10361106;28;20091;-52
2021/01/15 11:20:10;;;;;;;8.18;2.45;;;2.50;99.90;;;;;;10363167;28;20486;-52
2021/01/15 11:25:31;;;;;;;4.50;2.40;;;2.60;99.90;;;;;;10361512;28;20676;-52
2021/01/15 11:30:52;;;;;;;8.43;1.85;;;2.60;99.90;;;;;;10360600;28;20068;-52
2021/01/15 11:36:13;;;;;;;4.25;1.90;;;2.60;99.90;;;;;;10360426;28;20163;-51
2021/01/15 11:41:35;;;;;;;8.52;2.95;;;2.60;99.90;;;;;;10367544;28;20038;-52
2021/01/15 11:46:56;;;;;;;6.00;2.17;;;2.60;99.90;;;;;;10361160;28;20033;-51
2021/01/15 11:52:17;;;;;;;6.57;2.47;;;2.70;99.90;;;;;;10361904;28;20040;-52
2021/01/15 11:57:39;;;;;;;5.97;1.98;;;2.70;99.90;;;;;;10364219;28;20046;-52
2021/01/15 12:03:02;;;;;;;4.95;1.95;;;2.70;99.90;;;;;;10366611;28;20554;-52
2021/01/15 12:08:24;;;;;;;5.03;1.58;;;2.70;99.90;;;;;;10366471;28;20056;-52
2021/01/15 12:13:46;;;;;;;4.57;1.38;;;2.70;99.90;;;;;;10357808;28;20038;-52
2021/01/15 12:19:07;;;;;;;5.00;2.03;;;2.70;99.90;;;;;;10360989;28;20218;-52
2021/01/15 12:24:28;;;;;;;6.97;2.58;;;2.70;99.90;;;;;;10365337;28;20050;-51
2021/01/15 12:29:49;;;;;;;4.15;1.90;;;2.70;99.90;;;;;;10359753;28;20045;-52
2021/01/15 12:35:11;;;;;;;5.43;1.70;;;2.70;99.90;;;;;;10363817;28;20172;-52
2021/01/15 12:40:32;;;;;;;9.00;2.58;;;2.80;99.90;;;;;;10360272;28;20073;-52
2021/01/15 12:45:53;;;;;;;5.03;2.60;;;2.80;99.90;;;;;;10364707;28;20038;-52
2021/01/15 12:51:14;;;;;;;6.55;2.20;;;2.80;99.90;;;;;;10368118;28;20038;-51
2021/01/15 12:56:36;;;;;;;6.18;1.75;;;2.80;99.90;;;;;;10369501;28;20037;-52
2021/01/15 13:01:57;;;;;;;5.80;2.22;;;2.80;99.90;;;;;;10366438;28;20038;-52
2021/01/15 13:07:18;;;;;;;5.25;1.83;;;2.80;99.90;;;;;;10370918;28;20045;-52
2021/01/15 13:12:40;;;;;;;4.28;2.00;;;2.90;99.90;;;;;;10367823;28;20033;-52
2021/01/15 13:18:01;;;;;;;9.90;1.95;;;2.90;99.90;;;;;;10368155;28;20045;-52
2021/01/15 13:23:22;;;;;;;6.72;2.15;;;2.90;99.90;;;;;;10367829;28;20038;-52
2021/01/15 13:28:43;;;;;;;7.25;3.08;;;2.90;99.90;;;;;;10368411;28;20056;-52
2021/01/15 13:34:04;;;;;;;4.57;2.17;;;2.90;99.90;;;;;;10365648;28;20041;-52
2021/01/15 13:39:25;;;;;;;8.50;3.13;;;3.00;99.90;;;;;;10368808;28;22017;-52
2021/01/15 13:44:46;;;;;;;8.00;2.75;;;2.90;99.90;;;;;;10368743;28;20091;-52
2021/01/15 13:50:19;;;;;;;19.55;3.42;;;2.90;99.90;;;;;;10370021;28;20042;-52
2021/01/15 13:55:40;;;;;;;9.50;2.92;;;3.00;99.90;;;;;;10363390;28;20178;-51
2021/01/15 14:01:01;;;;;;;5.32;1.83;;;3.00;99.90;;;;;;10366530;28;20132;-52
2021/01/15 14:06:22;;;;;;;3.75;2.05;;;3.00;99.90;;;;;;10379102;28;20037;-52
2021/01/15 14:11:43;;;;;;;3.88;1.67;;;3.00;99.90;;;;;;10366990;28;20095;-52
2021/01/15 14:17:04;;;;;;;6.13;1.85;;;3.10;99.90;;;;;;10361555;28;20480;-52
2021/01/15 14:22:25;;;;;;;7.05;2.38;;;3.00;99.90;;;;;;10365653;28;20477;-52
2021/01/15 14:27:46;;;;;;;7.22;2.47;;;3.10;99.90;;;;;;10368025;28;20047;-52
2021/01/15 14:33:07;;;;;;;10.30;2.90;;;3.10;99.90;;;;;;10368985;28;20413;-52
2021/01/15 14:38:28;;;;;;;7.15;2.75;;;3.10;99.90;;;;;;10361979;28;20041;-52
2021/01/15 14:43:49;;;;;;;7.82;2.45;;;3.00;99.90;;;;;;10364836;28;20054;-52
2021/01/15 14:49:12;;;;;;;3.53;1.33;;;3.10;99.90;;;;;;10361649;28;20034;-52
2021/01/15 14:54:33;;;;;;;5.45;1.80;;;3.10;99.90;;;;;;10359683;28;20045;-51
2021/01/15 14:59:54;;;;;;;6.30;2.67;;;3.10;99.90;;;;;;10361921;28;20038;-52
2021/01/15 15:05:16;;;;;;;5.97;2.65;;;3.00;99.90;;;;;;10364839;28;20178;-52
2021/01/15 15:10:37;;;;;;;5.68;2.53;;;3.00;99.90;;;;;;10361824;28;20130;-52
2021/01/15 15:15:58;;;;;;;6.90;2.13;;;2.90;99.90;;;;;;10355854;28;20056;-52
2021/01/15 15:21:19;;;;;;;3.92;2.05;;;2.90;99.90;;;;;;10362001;28;20190;-52
2021/01/15 15:26:40;;;;;;;8.75;3.55;;;2.90;99.90;;;;;;10360307;28;20042;-52
2021/01/15 15:32:01;;;;;;;7.07;2.28;;;2.80;99.90;;;;;;10363584;28;20482;-52
2021/01/15 15:37:22;;;;;;;7.63;2.72;;;2.80;99.90;;;;;;10362102;28;20693;-52
2021/01/15 15:42:43;;;;;;;7.95;2.28;;;2.80;99.90;;;;;;10362665;28;20045;-52
2021/01/15 15:48:13;;;;;;;5.32;1.48;;;2.80;99.90;;;;;;10362169;28;20057;-52
2021/01/15 15:53:35;;;;;;;7.28;2.30;;;2.80;99.90;;;;;;10364679;28;20052;-52
2021/01/15 15:58:56;;;;;;;5.60;2.20;;;2.80;99.90;;;;;;10359815;28;20051;-52
2021/01/15 16:04:17;;;;;;;3.50;2.05;;;2.70;99.90;;;;;;10364049;28;20073;-52
2021/01/15 16:09:39;;;;;;;9.07;2.72;;;2.70;99.90;;;;;;10356683;28;20030;-52
2021/01/15 16:15:03;;;;;;;8.07;2.60;;;2.70;99.90;;;;;;10356587;28;20061;-52
2021/01/15 16:20:25;;;;;;;4.03;2.20;;;2.60;99.90;;;;;;10361092;28;20087;-52
2021/01/15 16:25:45;;;;;;;8.40;2.80;;;2.60;99.90;;;;;;10355198;28;20045;-52
2021/01/15 16:31:06;;;;;;;9.32;3.53;;;2.60;99.90;;;;;;10357371;28;20034;-52
2021/01/15 16:36:27;;;;;;;10.35;3.88;;;2.60;99.90;;;;;;10355704;28;20034;-51
2021/01/15 16:41:48;;;;;;;8.30;2.83;;;2.60;99.90;;;;;;10357637;28;20490;-52
2021/01/15 16:47:09;;;;;;;10.25;3.75;;;2.50;99.90;;;;;;10357353;28;20586;-52
2021/01/15 16:52:30;;;;;;;8.48;3.28;;;2.60;99.90;;;;;;10358395;28;20095;-52
2021/01/15 16:58:21;;;;;;;9.73;3.78;;;2.60;99.90;;;;;;10356328;28;20579;-52
2021/01/15 17:03:42;;;;;;;9.93;3.42;;;2.60;99.90;;;;;;10360261;28;20474;-52
2021/01/15 17:09:03;;;;;;;7.85;2.80;;;2.50;99.90;;;;;;10362864;28;20045;-52
2021/01/15 17:14:25;;;;;;;11.35;3.95;;;2.50;99.90;;;;;;10361821;28;20046;-52
2021/01/15 17:19:46;;;;;;;8.63;3.42;;;2.50;99.90;;;;;;10362498;28;20136;-52
2021/01/15 17:25:08;;;;;;;6.75;2.22;;;2.50;99.90;;;;;;10359214;28;20041;-52
2021/01/15 17:30:29;;;;;;;8.63;3.55;;;2.50;99.90;;;;;;10360643;28;20521;-52
2021/01/15 17:35:50;;;;;;;10.43;3.80;;;2.50;99.90;;;;;;10364514;28;20059;-52
2021/01/15 17:41:11;;;;;;;10.57;3.00;;;2.50;99.90;;;;;;10366813;28;20072;-52
2021/01/15 17:46:35;;;;;;;8.50;3.17;;;2.50;99.90;;;;;;10367574;28;20041;-52
2021/01/15 17:51:56;;;;;;;5.70;2.00;;;2.60;99.90;;;;;;10368823;28;20426;-52
2021/01/15 17:57:17;;;;;;;6.72;2.70;;;2.60;99.90;;;;;;10369076;28;20045;-51
2021/01/15 18:02:38;;;;;;;12.57;3.25;;;2.70;99.90;;;;;;10368726;28;20417;-52
2021/01/15 18:07:59;;;;;;;6.55;3.10;;;2.70;99.90;;;;;;10366268;28;20618;-52
2021/01/15 18:13:20;;;;;;;8.45;2.58;;;2.70;99.90;;;;;;10364966;28;20038;-52
2021/01/15 18:18:41;;;;;;;7.38;3.38;;;2.60;99.90;;;;;;10362362;28;20046;-52
2021/01/15 18:24:03;;;;;;;9.73;3.05;;;2.60;99.90;;;;;;10366755;28;20088;-52
2021/01/15 18:29:24;;;;;;;6.35;2.90;;;2.60;99.90;;;;;;10364825;28;20049;-52
2021/01/15 18:34:45;;;;;;;4.95;2.42;;;2.60;99.90;;;;;;10361990;28;21088;-52
2021/01/15 18:40:07;;;;;;;8.63;2.63;;;2.60;99.90;;;;;;10366799;28;20455;-52
2021/01/15 18:45:28;;;;;;;13.02;3.25;;;2.70;99.90;;;;;;10368633;28;20049;-52
2021/01/15 18:50:49;;;;;;;5.60;3.20;;;2.60;99.90;;;;;;10364653;28;20052;-52
2021/01/15 18:56:10;;;;;;;7.70;3.30;;;2.50;99.90;;;;;;10365855;28;20113;-52
2021/01/15 19:01:31;;;;;;;8.07;2.50;;;2.50;99.90;;;;;;10362981;28;20042;-52
2021/01/15 19:06:52;;;;;;;9.38;2.50;;;2.50;99.90;;;;;;10365789;28;20050;-52
2021/01/15 19:12:13;;;;;;;9.63;3.80;;;2.50;99.90;;;;;;10363626;28;20046;-52
2021/01/15 19:17:34;;;;;;;7.03;2.58;;;2.50;99.90;;;;;;10361856;28;20079;-52
2021/01/15 19:22:55;;;;;;;9.77;3.55;;;2.50;99.90;;;;;;10364858;28;20522;-52
2021/01/15 19:28:21;;;;;;;3.92;2.05;;;2.50;99.90;;;;;;10365799;28;20064;-52
2021/01/15 19:33:43;;;;;;;6.63;3.35;;;2.60;99.90;;;;;;10362656;28;20124;-52
2021/01/15 19:39:05;;;;;;;8.70;3.22;;;2.60;99.90;;;;;;10363350;28;20046;-52
2021/01/15 19:44:26;;;;;;;8.18;3.33;;;2.60;99.90;;;;;;10361743;28;20049;-52
2021/01/15 19:49:47;;;;;;;13.73;4.13;;;2.60;99.90;;;;;;10366309;28;20525;-52
2021/01/15 19:55:09;;;;;;;5.90;2.55;;;2.60;99.90;;;;;;10360597;28;20455;-51
2021/01/15 20:00:31;;;;;;;12.10;3.15;;;2.60;99.90;;;;;;10361021;28;20445;-52
2021/01/15 20:05:53;;;;;;;9.05;2.55;;;2.60;99.90;;;;;;10375021;28;20096;-52
2021/01/15 20:11:14;;;;;;;5.78;2.03;;;2.50;99.90;;;;;;10363679;28;20037;-52
2021/01/15 20:16:35;;;;;;;13.52;3.85;;;2.50;99.90;;;;;;10361224;28;20057;-52
2021/01/15 20:21:56;;;;;;;10.73;4.20;;;2.50;99.90;;;;;;10361045;28;20491;-52
2021/01/15 20:27:17;;;;;;;7.97;2.65;;;2.50;99.90;;;;;;10361921;28;20386;-52
2021/01/15 20:32:40;;;;;;;9.13;3.13;;;2.50;99.90;;;;;;10357865;28;20640;-52
2021/01/15 20:38:01;;;;;;;6.38;2.33;;;2.50;99.90;;;;;;10363389;28;20060;-52
2021/01/15 20:43:22;;;;;;;8.70;3.58;;;2.40;99.90;;;;;;10361107;28;20048;-52
2021/01/15 20:48:45;;;;;;;5.25;2.78;;;2.40;99.90;;;;;;10359668;28;20480;-51
2021/01/15 20:54:06;;;;;;;12.18;3.42;;;2.40;99.90;;;;;;10356663;28;20100;-52
2021/01/15 20:59:27;;;;;;;8.45;3.35;;;2.40;99.90;;;;;;10356122;28;20046;-52
2021/01/15 21:04:48;;;;;;;7.75;2.80;;;2.40;99.90;;;;;;10355631;28;20038;-52
2021/01/15 21:10:09;;;;;;;10.65;2.63;;;2.40;99.90;;;;;;10365385;28;20041;-52
2021/01/15 21:15:30;;;;;;;8.57;3.33;;;2.40;99.90;;;;;;10365439;28;20038;-52
2021/01/15 21:20:51;;;;;;;5.60;3.00;;;2.40;99.90;;;;;;10367218;28;20042;-52
2021/01/15 21:26:12;;;;;;;6.90;2.53;;;2.40;99.90;;;;;;10366623;28;20041;-52
2021/01/15 21:31:44;;;;;;;8.40;3.00;;;2.50;99.90;;;;;;10367928;28;20087;-51
2021/01/15 21:37:05;;;;;;;6.95;2.47;;;2.40;99.90;;;;;;10366607;28;20099;-51
2021/01/15 21:42:26;;;;;;;10.43;3.80;;;2.30;99.90;;;;;;10369593;28;20050;-52
2021/01/15 21:47:47;;;;;;;6.53;2.47;;;2.30;99.90;;;;;;10364205;28;20041;-52
2021/01/15 21:53:08;;;;;;;10.13;3.53;;;2.30;99.90;;;;;;10365062;28;20038;-52
2021/01/15 21:58:29;;;;;;;5.53;2.50;;;2.30;99.90;;;;;;10365445;28;20195;-52
2021/01/15 22:03:50;;;;;;;11.80;4.05;;;2.30;99.90;;;;;;10368904;28;20550;-52
2021/01/15 22:09:13;;;;;;;7.70;2.83;;;2.30;99.90;;;;;;10367378;28;20132;-51
2021/01/15 22:14:34;;;;;;;9.15;3.28;;;2.40;99.90;;;;;;10362895;28;20038;-52
2021/01/15 22:19:55;;;;;;;9.15;3.13;;;2.30;99.90;;;;;;10363066;28;20103;-52
2021/01/15 22:25:16;;;;;;;7.68;3.20;;;2.30;99.90;;;;;;10365869;28;20051;-52
2021/01/15 22:30:38;;;;;;;6.05;2.17;;;2.20;99.90;;;;;;10367027;28;20496;-52
2021/01/15 22:35:59;;;;;;;7.35;2.20;;;2.30;99.90;;;;;;10368280;28;20421;-52
2021/01/15 22:41:20;;;;;;;7.53;3.58;;;2.30;99.90;;;;;;10366270;28;20582;-52
2021/01/15 22:46:41;;;;;;;4.82;2.15;;;2.30;99.90;;;;;;10366880;28;20050;-52
2021/01/15 22:52:02;;;;;;;10.85;2.90;;;2.30;99.90;;;;;;10365527;28;20033;-52
2021/01/15 22:57:23;;;;;;;6.80;2.15;;;2.40;99.90;;;;;;10364120;28;20038;-52
2021/01/15 23:02:48;;;;;;;7.30;2.88;;;2.30;99.90;;;;;;10363775;28;20371;-51
2021/01/15 23:08:10;;;;;;;8.30;2.72;;;2.50;99.90;;;;;;10362997;28;20045;-52
2021/01/15 23:13:32;;;;;;;5.30;2.55;;;2.40;99.90;;;;;;10363590;28;20024;-51
2021/01/15 23:18:53;;;;;;;7.05;2.63;;;2.40;99.90;;;;;;10363479;28;20065;-52
2021/01/15 23:24:14;;;;;;;7.25;2.55;;;2.40;99.90;;;;;;10369105;28;20064;-52
2021/01/15 23:29:35;;;;;;;6.15;2.03;;;2.30;99.90;;;;;;10372954;28;20041;-52
2021/01/15 23:34:56;;;;;;;6.88;3.20;;;2.30;99.90;;;;;;10366626;28;20045;-52
2021/01/15 23:40:18;;;;;;;7.10;2.47;;;2.20;99.90;;;;;;10367058;28;20064;-51
2021/01/15 23:45:52;;;;;;;13.18;3.53;;;2.20;99.90;;;;;;10365486;28;20056;-52
2021/01/15 23:51:13;;;;;;;8.48;2.35;;;2.20;99.90;;;;;;10367014;28;20132;-51
2021/01/15 23:56:34;;;;;;;5.95;2.63;;;2.20;99.90;;;;;;10361940;28;20091;-51
